Terminal Aerodrome Forecast
Issued by NWS Wilmington, OH

Current Version | Previous Version | Graphics & Text | Print | Product List | Glossary On
Versions: 1 2 3 4 5 6 7 8 9 10 11 12 13 14 15 16 17 18 19 20 21 22
535
FTUS41 KILN 232255 AAC
TAFCMH
TAF AMD
KCMH 232255Z 2323/2418 22005KT P6SM VCSH SCT040 BKN070
      TEMPO 2323/2401 5SM -TSRA BKN040CB OVC070
     FM240200 17005KT P6SM BKN040
     FM241300 18010KT P6SM BKN070
     FM241500 19014G22KT P6SM BKN035=

USA.gov is the U.S. government's official web portal to all federal, state and local government web resources and services.